Time;durP1;ratioP1;P1;durP2;ratioP2;P2;SDS_P1;SDS_P2;PMS_P1;PMS_P2;Temp;Humidity;BMP_temperature;BMP_pressure;BME280_temperature;BME280_humidity;BME280_pressure;Samples;Min_cycle;Max_cycle;Signal;HPM_P1;HPM_P2
2021/04/20 00:01:31;;;;;;;;;;;;;;;;;;5114179;28;19929;-78
2021/04/20 00:03:57;;;;;;;;;;;;;;;;;;5114614;28;19911;-77
2021/04/20 00:06:22;;;;;;;;;;;;;;;;;;5114258;28;19946;-78
2021/04/20 00:08:47;;;;;;;;;;;;;;;;;;5112928;28;19923;-77
2021/04/20 00:11:13;;;;;;;;;;;;;;;;;;5100671;28;19915;-77
2021/04/20 00:13:38;;;;;;;;;;;;;;;;;;5093928;28;20374;-77
2021/04/20 00:16:03;;;;;;;;;;;;;;;;;;5093540;28;19912;-77
2021/04/20 00:18:29;;;;;;;;;;;;;;;;;;5091990;28;19912;-77
2021/04/20 00:20:54;;;;;;;;;;;;;;;;;;5093835;28;19999;-77
2021/04/20 00:23:20;;;;;;;;;;;;;;;;;;5093520;28;20419;-77
2021/04/20 00:25:45;;;;;;;;;;;;;;;;;;5093161;28;19912;-77
2021/04/20 00:28:10;;;;;;;;;;;;;;;;;;5092295;28;19920;-78
2021/04/20 00:30:36;;;;;;;;;;;;;;;;;;5092554;28;20302;-78
2021/04/20 00:33:01;;;;;;;;;;;;;;;;;;5093046;28;19923;-77
2021/04/20 00:35:27;;;;;;;;;;;;;;;;;;5092475;28;20285;-77
2021/04/20 00:37:52;;;;;;;;;;;;;;;;;;5093429;28;19919;-77
2021/04/20 00:40:18;;;;;;;;;;;;;;;;;;5093092;28;19927;-77
2021/04/20 00:42:51;;;;;;;;;;;;;;;;;;5074668;28;20358;-77
2021/04/20 00:45:19;;;;;;;;;;;;;;;;;;5072891;28;19920;-78
2021/04/20 00:47:44;;;;;;;;;;;;;;;;;;5072683;28;20267;-78
2021/04/20 00:50:11;;;;;;;;;;;;;;;;;;5073410;28;19919;-77
2021/04/20 00:52:36;;;;;;;;;;;;;;;;;;5073166;28;20417;-77
2021/04/20 00:55:02;;;;;;;;;;;;;;;;;;5073143;28;19973;-77
2021/04/20 00:57:27;;;;;;;;;;;;;;;;;;5071417;28;19913;-77
2021/04/20 00:59:53;;;;;;;;;;;;;;;;;;5072625;28;20000;-78
2021/04/20 01:02:18;;;;;;;;;;;;;;;;;;5071710;28;20374;-77
2021/04/20 01:04:43;;;;;;;;;;;;;;;;;;5080397;28;19912;-77
2021/04/20 01:07:09;;;;;;;;;;;;;;;;;;5095978;28;20416;-77
2021/04/20 01:09:34;;;;;;;;;;;;;;;;;;5096685;28;19955;-77
2021/04/20 01:11:59;;;;;;;;;;;;;;;;;;5096719;28;19919;-76
2021/04/20 01:14:25;;;;;;;;;;;;;;;;;;5096929;28;20002;-78
2021/04/20 01:16:50;;;;;;;;;;;;;;;;;;5096313;28;19920;-77
2021/04/20 01:19:18;;;;;;;;;;;;;;;;;;5096850;28;19951;-78
2021/04/20 01:21:43;;;;;;;;;;;;;;;;;;5095129;28;19920;-78
2021/04/20 01:24:09;;;;;;;;;;;;;;;;;;5096245;28;20262;-77
2021/04/20 01:26:35;;;;;;;;;;;;;;;;;;5096592;28;19916;-77
2021/04/20 01:29:01;;;;;;;;;;;;;;;;;;5095475;28;19908;-78
2021/04/20 01:31:28;;;;;;;;;;;;;;;;;;5096374;28;20045;-77
2021/04/20 01:33:53;;;;;;;;;;;;;;;;;;5096436;28;19916;-77
2021/04/20 01:36:20;;;;;;;;;;;;;;;;;;5075271;28;20288;-77
2021/04/20 01:38:46;;;;;;;;;;;;;;;;;;5075660;28;19913;-77
2021/04/20 01:41:12;;;;;;;;;;;;;;;;;;5074638;28;20350;-76
2021/04/20 01:43:37;;;;;;;;;;;;;;;;;;5075670;28;20388;-77
2021/04/20 01:46:03;;;;;;;;;;;;;;;;;;5075960;28;19916;-78
2021/04/20 01:48:28;;;;;;;;;;;;;;;;;;5074791;28;19916;-77
2021/04/20 01:50:54;;;;;;;;;;;;;;;;;;5075985;28;20015;-77
2021/04/20 01:53:20;;;;;;;;;;;;;;;;;;5074596;28;19913;-77
2021/04/20 01:55:46;;;;;;;;;;;;;;;;;;5075865;28;19966;-76
2021/04/20 01:58:11;;;;;;;;;;;;;;;;;;5075815;28;19916;-77
2021/04/20 02:00:37;;;;;;;;;;;;;;;;;;5075467;28;19917;-77
2021/04/20 02:03:03;;;;;;;;;;;;;;;;;;5075472;28;19919;-77
2021/04/20 02:05:28;;;;;;;;;;;;;;;;;;5075598;28;19916;-77
2021/04/20 02:07:56;;;;;;;;;;;;;;;;;;5075476;28;20383;-77
2021/04/20 02:10:23;;;;;;;;;;;;;;;;;;5075296;28;19960;-76
2021/04/20 02:12:48;;;;;;;;;;;;;;;;;;5075219;28;20011;-77
2021/04/20 02:15:14;;;;;;;;;;;;;;;;;;5075347;28;20005;-77
2021/04/20 02:17:41;;;;;;;;;;;;;;;;;;5074577;28;19919;-77
2021/04/20 02:20:08;;;;;;;;;;;;;;;;;;5073678;28;19962;-77
2021/04/20 02:22:35;;;;;;;;;;;;;;;;;;5075308;28;19912;-77
2021/04/20 02:25:00;;;;;;;;;;;;;;;;;;5075121;28;19909;-77
2021/04/20 02:27:26;;;;;;;;;;;;;;;;;;5074016;28;20400;-78
2021/04/20 02:29:51;;;;;;;;;;;;;;;;;;5073716;28;19916;-77
2021/04/20 02:32:17;;;;;;;;;;;;;;;;;;5075069;28;19916;-77
2021/04/20 02:34:42;;;;;;;;;;;;;;;;;;5090879;28;20282;-77
2021/04/20 02:37:08;;;;;;;;;;;;;;;;;;5075192;28;19954;-77
2021/04/20 02:39:33;;;;;;;;;;;;;;;;;;5074135;28;20106;-77
2021/04/20 02:41:59;;;;;;;;;;;;;;;;;;5091316;28;19958;-77
2021/04/20 02:44:24;;;;;;;;;;;;;;;;;;5115281;28;19956;-77
2021/04/20 02:46:50;;;;;;;;;;;;;;;;;;5114462;28;19918;-77
2021/04/20 02:49:15;;;;;;;;;;;;;;;;;;5115176;28;19912;-77
2021/04/20 02:51:41;;;;;;;;;;;;;;;;;;5115271;28;20327;-76
2021/04/20 02:54:08;;;;;;;;;;;;;;;;;;5115363;28;20349;-77
2021/04/20 02:56:34;;;;;;;;;;;;;;;;;;5115146;28;20362;-78
2021/04/20 02:59:00;;;;;;;;;;;;;;;;;;5115513;28;19911;-77
2021/04/20 03:01:27;;;;;;;;;;;;;;;;;;5114985;28;19915;-77
2021/04/20 03:03:53;;;;;;;;;;;;;;;;;;5113822;28;19911;-77
2021/04/20 03:06:20;;;;;;;;;;;;;;;;;;5115074;28;19938;-76
2021/04/20 03:08:45;;;;;;;;;;;;;;;;;;5114843;28;20343;-77
2021/04/20 03:11:14;;;;;;;;;;;;;;;;;;5114757;28;19948;-76
2021/04/20 03:13:41;;;;;;;;;;;;;;;;;;5114481;28;19912;-77
2021/04/20 03:16:07;;;;;;;;;;;;;;;;;;5089790;28;20374;-77
2021/04/20 03:18:33;;;;;;;;;;;;;;;;;;5074061;28;19912;-77
2021/04/20 03:20:59;;;;;;;;;;;;;;;;;;5074193;28;19927;-77
2021/04/20 03:23:25;;;;;;;;;;;;;;;;;;5074326;28;20293;-77
2021/04/20 03:25:50;;;;;;;;;;;;;;;;;;5074092;28;19916;-77
2021/04/20 03:28:16;;;;;;;;;;;;;;;;;;5074126;28;20361;-76
2021/04/20 03:30:41;;;;;;;;;;;;;;;;;;5073934;28;19913;-78
2021/04/20 03:33:10;;;;;;;;;;;;;;;;;;5074027;28;19917;-77
2021/04/20 03:35:42;;;;;;;;;;;;;;;;;;5074459;28;20350;-75
2021/04/20 03:38:15;;;;;;;;;;;;;;;;;;5073743;28;19912;-78
2021/04/20 03:40:46;;;;;;;;;;;;;;;;;;5073847;28;19923;-77
2021/04/20 03:43:13;;;;;;;;;;;;;;;;;;5102247;28;19912;-77
2021/04/20 03:45:54;;;;;;;;;;;;;;;;;;5113054;28;20456;-76
2021/04/20 03:48:21;;;;;;;;;;;;;;;;;;5114491;28;20250;-76
2021/04/20 03:51:07;;;;;;;;;;;;;;;;;;5114375;28;20323;-77
2021/04/20 03:53:34;;;;;;;;;;;;;;;;;;5112903;28;19935;-77
2021/04/20 03:56:01;;;;;;;;;;;;;;;;;;5114015;28;20350;-77
2021/04/20 03:58:28;;;;;;;;;;;;;;;;;;5114078;28;19912;-77
2021/04/20 04:00:54;;;;;;;;;;;;;;;;;;5114095;28;19916;-78
2021/04/20 04:03:21;;;;;;;;;;;;;;;;;;5112937;28;19960;-78
2021/04/20 04:05:47;;;;;;;;;;;;;;;;;;5114115;28;19953;-77
2021/04/20 04:08:13;;;;;;;;;;;;;;;;;;5114176;28;19955;-77
2021/04/20 04:10:39;;;;;;;;;;;;;;;;;;5088645;28;19928;-77
2021/04/20 04:13:07;;;;;;;;;;;;;;;;;;5073138;28;19912;-77
2021/04/20 04:15:33;;;;;;;;;;;;;;;;;;5073318;28;19916;-77
2021/04/20 04:18:00;;;;;;;;;;;;;;;;;;5073345;28;19917;-78
2021/04/20 04:20:26;;;;;;;;;;;;;;;;;;5073614;28;19912;-77
2021/04/20 04:22:54;;;;;;;;;;;;;;;;;;5055739;28;19987;-77
2021/04/20 04:25:22;;;;;;;;;;;;;;;;;;5073221;28;19916;-77
2021/04/20 04:27:48;;;;;;;;;;;;;;;;;;5073230;28;19919;-76
2021/04/20 04:30:16;;;;;;;;;;;;;;;;;;5073369;28;19916;-78
2021/04/20 04:32:42;;;;;;;;;;;;;;;;;;5072754;28;19916;-77
2021/04/20 04:35:09;;;;;;;;;;;;;;;;;;5092383;28;20002;-77
2021/04/20 04:37:35;;;;;;;;;;;;;;;;;;5113556;28;20018;-77
2021/04/20 04:40:02;;;;;;;;;;;;;;;;;;5113496;28;19918;-77
2021/04/20 04:42:28;;;;;;;;;;;;;;;;;;5116125;28;20010;-77
2021/04/20 04:44:53;;;;;;;;;;;;;;;;;;5117850;28;19947;-77
2021/04/20 04:47:18;;;;;;;;;;;;;;;;;;5117530;28;20335;-77
2021/04/20 04:49:44;;;;;;;;;;;;;;;;;;5117605;28;19918;-77
2021/04/20 04:52:10;;;;;;;;;;;;;;;;;;5117551;28;19916;-77
2021/04/20 04:54:36;;;;;;;;;;;;;;;;;;5117352;28;19922;-77
2021/04/20 04:57:03;;;;;;;;;;;;;;;;;;5116355;28;19919;-77
2021/04/20 04:59:30;;;;;;;;;;;;;;;;;;5117468;28;19915;-77
2021/04/20 05:01:56;;;;;;;;;;;;;;;;;;5117796;28;20034;-77
2021/04/20 05:04:24;;;;;;;;;;;;;;;;;;5095651;28;20389;-77
2021/04/20 05:06:50;;;;;;;;;;;;;;;;;;5091380;28;19930;-77
2021/04/20 05:09:17;;;;;;;;;;;;;;;;;;5076239;28;19967;-77
2021/04/20 05:11:43;;;;;;;;;;;;;;;;;;5075489;28;19913;-77
2021/04/20 05:14:10;;;;;;;;;;;;;;;;;;5115364;28;19916;-77
2021/04/20 05:16:35;;;;;;;;;;;;;;;;;;5116912;28;19953;-77
2021/04/20 05:19:02;;;;;;;;;;;;;;;;;;5117246;28;19965;-77
2021/04/20 05:21:27;;;;;;;;;;;;;;;;;;5116926;28;19915;-77
2021/04/20 05:23:52;;;;;;;;;;;;;;;;;;5115889;28;20301;-77
2021/04/20 05:26:18;;;;;;;;;;;;;;;;;;5117270;28;19916;-77
2021/04/20 05:28:43;;;;;;;;;;;;;;;;;;5116801;28;19935;-77
2021/04/20 05:31:09;;;;;;;;;;;;;;;;;;5115566;28;20388;-77
2021/04/20 05:33:34;;;;;;;;;;;;;;;;;;5116891;28;19915;-77
2021/04/20 05:36:09;;;;;;;;;;;;;;;;;;5116897;28;19912;-77
2021/04/20 05:38:34;;;;;;;;;;;;;;;;;;5115402;28;19922;-77
2021/04/20 05:41:02;;;;;;;;;;;;;;;;;;5116928;27;20315;-76
2021/04/20 05:43:27;;;;;;;;;;;;;;;;;;5117886;28;20301;-77
2021/04/20 05:45:52;;;;;;;;;;;;;;;;;;5115455;28;19954;-76
2021/04/20 05:48:18;;;;;;;;;;;;;;;;;;5101249;28;19916;-77
2021/04/20 05:50:44;;;;;;;;;;;;;;;;;;5075506;28;19913;-77
2021/04/20 05:53:10;;;;;;;;;;;;;;;;;;5073674;28;19912;-77
2021/04/20 05:55:35;;;;;;;;;;;;;;;;;;5075828;28;19958;-76
2021/04/20 05:58:01;;;;;;;;;;;;;;;;;;5075780;28;20007;-77
2021/04/20 06:00:27;;;;;;;;;;;;;;;;;;5075599;28;19985;-77
2021/04/20 06:02:53;;;;;;;;;;;;;;;;;;5088782;28;20404;-77
2021/04/20 06:05:19;;;;;;;;;;;;;;;;;;5095659;28;20121;-77
2021/04/20 06:07:55;;;;;;;;;;;;;;;;;;5095010;28;20374;-76
2021/04/20 06:10:20;;;;;;;;;;;;;;;;;;5100282;28;19950;-80
2021/04/20 06:12:46;;;;;;;;;;;;;;;;;;5099859;28;20369;-80
2021/04/20 06:15:13;;;;;;;;;;;;;;;;;;5099301;28;20376;-84
2021/04/20 06:17:39;;;;;;;;;;;;;;;;;;5099192;28;19923;-81
2021/04/20 06:20:06;;;;;;;;;;;;;;;;;;5099570;28;19908;-83
2021/04/20 06:22:41;;;;;;;;;;;;;;;;;;5096584;28;19912;-79
2021/04/20 06:25:14;;;;;;;;;;;;;;;;;;5097788;28;19962;-78
2021/04/20 06:27:40;;;;;;;;;;;;;;;;;;5096048;28;19912;-78
2021/04/20 06:30:06;;;;;;;;;;;;;;;;;;5096050;28;20316;-78
2021/04/20 06:32:32;;;;;;;;;;;;;;;;;;5097074;28;19916;-74
2021/04/20 06:34:57;;;;;;;;;;;;;;;;;;5095924;28;19965;-78
2021/04/20 06:37:26;;;;;;;;;;;;;;;;;;5097419;28;19918;-81
2021/04/20 06:39:51;;;;;;;;;;;;;;;;;;5100376;28;19919;-84
2021/04/20 06:42:19;;;;;;;;;;;;;;;;;;5093901;28;19916;-84
2021/04/20 06:44:56;;;;;;;;;;;;;;;;;;5074876;28;19919;-77
2021/04/20 06:47:33;;;;;;;;;;;;;;;;;;5072884;28;19916;-77
2021/04/20 06:50:05;;;;;;;;;;;;;;;;;;5072676;28;20305;-77
2021/04/20 06:52:43;;;;;;;;;;;;;;;;;;5074190;28;19965;-77
2021/04/20 06:55:10;;;;;;;;;;;;;;;;;;5074257;28;19926;-76
2021/04/20 06:57:39;;;;;;;;;;;;;;;;;;5074097;28;20396;-78
2021/04/20 07:00:10;;;;;;;;;;;;;;;;;;5074411;28;19920;-77
2021/04/20 07:02:46;;;;;;;;;;;;;;;;;;5074479;28;19912;-78
2021/04/20 07:05:15;;;;;;;;;;;;;;;;;;5098349;28;19911;-76
2021/04/20 07:07:54;;;;;;;;;;;;;;;;;;5113784;28;19931;-80
2021/04/20 07:10:33;;;;;;;;;;;;;;;;;;5114747;28;20367;-77
2021/04/20 07:12:59;;;;;;;;;;;;;;;;;;5113418;28;20277;-77
2021/04/20 07:15:25;;;;;;;;;;;;;;;;;;5099428;28;19957;-77
2021/04/20 07:17:56;;;;;;;;;;;;;;;;;;5094448;28;19919;-77
2021/04/20 07:20:30;;;;;;;;;;;;;;;;;;5093827;28;20277;-77
2021/04/20 07:23:03;;;;;;;;;;;;;;;;;;5094598;28;19952;-77
2021/04/20 07:25:53;;;;;;;;;;;;;;;;;;5093120;28;19912;-77
2021/04/20 07:28:24;;;;;;;;;;;;;;;;;;5094155;28;20032;-77
2021/04/20 07:30:53;;;;;;;;;;;;;;;;;;5092628;28;19957;-78
2021/04/20 07:33:34;;;;;;;;;;;;;;;;;;5093275;28;19920;-78
2021/04/20 07:36:13;;;;;;;;;;;;;;;;;;5094114;28;19918;-78
2021/04/20 07:38:47;;;;;;;;;;;;;;;;;;5093847;28;19915;-78
2021/04/20 07:41:21;;;;;;;;;;;;;;;;;;5093508;28;19922;-77
2021/04/20 07:44:00;;;;;;;;;;;;;;;;;;5087783;28;19912;-78
2021/04/20 07:46:39;;;;;;;;;;;;;;;;;;5088805;28;19911;-78
2021/04/20 07:49:19;;;;;;;;;;;;;;;;;;5075572;28;19908;-77
2021/04/20 07:51:44;;;;;;;;;;;;;;;;;;5074680;28;19912;-79
2021/04/20 07:54:14;;;;;;;;;;;;;;;;;;5078075;28;19919;-81
2021/04/20 07:56:45;;;;;;;;;;;;;;;;;;5079453;28;19913;-83
2021/04/20 07:59:24;;;;;;;;;;;;;;;;;;5079058;28;19950;-82
2021/04/20 08:01:58;;;;;;;;;;;;;;;;;;5083336;28;19929;-79
2021/04/20 08:04:42;;;;;;;;;;;;;;;;;;5116156;28;19912;-80
2021/04/20 08:07:16;;;;;;;;;;;;;;;;;;5116614;28;19934;-80
2021/04/20 08:09:42;;;;;;;;;;;;;;;;;;5112376;28;19934;-80
2021/04/20 08:12:13;;;;;;;;;;;;;;;;;;5102902;28;19919;-79
2021/04/20 08:14:57;;;;;;;;;;;;;;;;;;5100076;28;20014;-78
2021/04/20 08:17:25;;;;;;;;;;;;;;;;;;5104457;28;20346;-78
2021/04/20 08:19:58;;;;;;;;;;;;;;;;;;5101249;28;19912;-79
2021/04/20 08:22:25;;;;;;;;;;;;;;;;;;5105269;28;19916;-81
2021/04/20 08:24:56;;;;;;;;;;;;;;;;;;5103021;28;19916;-78
2021/04/20 08:27:33;;;;;;;;;;;;;;;;;;5100820;28;19912;-81
2021/04/20 08:30:03;;;;;;;;;;;;;;;;;;5101134;28;19923;-83
2021/04/20 08:32:29;;;;;;;;;;;;;;;;;;5103754;28;19920;-84
2021/04/20 08:34:59;;;;;;;;;;;;;;;;;;5103313;28;20289;-84
2021/04/20 08:37:33;;;;;;;;;;;;;;;;;;5104503;28;20292;-86
2021/04/20 08:40:06;;;;;;;;;;;;;;;;;;5086320;28;20469;-83
2021/04/20 08:42:50;;;;;;;;;;;;;;;;;;5104069;28;19916;-82
2021/04/20 08:45:15;;;;;;;;;;;;;;;;;;5088588;28;19938;-82
2021/04/20 08:47:46;;;;;;;;;;;;;;;;;;5089135;28;19916;-82
2021/04/20 08:50:18;;;;;;;;;;;;;;;;;;5086010;28;19920;-82
2021/04/20 08:52:43;;;;;;;;;;;;;;;;;;5088733;28;20373;-82
2021/04/20 08:55:27;;;;;;;;;;;;;;;;;;5089160;28;19916;-82
2021/04/20 08:57:53;;;;;;;;;;;;;;;;;;5084342;28;20286;-81
2021/04/20 09:00:25;;;;;;;;;;;;;;;;;;5102991;28;19988;-81
2021/04/20 09:03:03;;;;;;;;;;;;;;;;;;5103269;28;19958;-81
2021/04/20 09:05:29;;;;;;;;;;;;;;;;;;5117680;28;20009;-79
2021/04/20 09:07:55;;;;;;;;;;;;;;;;;;5124605;27;20522;-80
2021/04/20 09:10:26;;;;;;;;;;;;;;;;;;5123384;28;19911;-81
2021/04/20 09:12:55;;;;;;;;;;;;;;;;;;5123867;28;19912;-85
2021/04/20 09:15:22;;;;;;;;;;;;;;;;;;5124595;28;19985;-85
2021/04/20 09:17:49;;;;;;;;;;;;;;;;;;5118098;28;19998;-86
2021/04/20 09:20:28;;;;;;;;;;;;;;;;;;5118854;28;19912;-86
2021/04/20 09:22:53;;;;;;;;;;;;;;;;;;5117797;28;19911;-87
2021/04/20 09:25:18;;;;;;;;;;;;;;;;;;5098033;28;19912;-87
2021/04/20 09:28:03;;;;;;;;;;;;;;;;;;5101520;28;19920;-85
2021/04/20 09:30:43;;;;;;;;;;;;;;;;;;5099736;28;20130;-83
2021/04/20 09:33:12;;;;;;;;;;;;;;;;;;5102122;28;19966;-78
2021/04/20 09:35:38;;;;;;;;;;;;;;;;;;5101567;28;20408;-79
2021/04/20 09:38:05;;;;;;;;;;;;;;;;;;5103218;28;19912;-85
2021/04/20 09:40:30;;;;;;;;;;;;;;;;;;5102880;28;19925;-79
2021/04/20 09:42:58;;;;;;;;;;;;;;;;;;5102848;28;19911;-82
2021/04/20 09:45:32;;;;;;;;;;;;;;;;;;5103459;28;20324;-81
2021/04/20 09:47:58;;;;;;;;;;;;;;;;;;5102904;28;19912;-82
2021/04/20 09:50:30;;;;;;;;;;;;;;;;;;5102463;28;19927;-81
2021/04/20 09:53:06;;;;;;;;;;;;;;;;;;5102938;28;19919;-83
2021/04/20 09:56:01;;;;;;;;;;;;;;;;;;5121322;28;19912;-86
2021/04/20 09:58:28;;;;;;;;;;;;;;;;;;5107148;28;19948;-83
2021/04/20 10:00:54;;;;;;;;;;;;;;;;;;5124627;28;19994;-82
2021/04/20 10:03:52;;;;;;;;;;;;;;;;;;5108885;28;19912;-81
2021/04/20 10:06:50;;;;;;;;;;;;;;;;;;5080189;28;20322;-81
2021/04/20 10:09:34;;;;;;;;;;;;;;;;;;5090555;28;19915;-81
2021/04/20 10:12:19;;;;;;;;;;;;;;;;;;5102760;28;19968;-80
2021/04/20 10:15:02;;;;;;;;;;;;;;;;;;5097388;28;19916;-78
2021/04/20 10:17:36;;;;;;;;;;;;;;;;;;5096908;28;19994;-79
2021/04/20 10:20:08;;;;;;;;;;;;;;;;;;5099697;28;19964;-79
2021/04/20 10:22:38;;;;;;;;;;;;;;;;;;5098167;28;20381;-80
2021/04/20 10:25:11;;;;;;;;;;;;;;;;;;5099314;28;19912;-80
2021/04/20 10:27:36;;;;;;;;;;;;;;;;;;5095617;28;20296;-79
2021/04/20 10:30:05;;;;;;;;;;;;;;;;;;5099026;28;20006;-79
2021/04/20 10:32:34;;;;;;;;;;;;;;;;;;5097400;28;19915;-80
2021/04/20 10:35:00;;;;;;;;;;;;;;;;;;5099093;28;20369;-80
2021/04/20 10:37:31;;;;;;;;;;;;;;;;;;5097661;28;19912;-80
2021/04/20 10:39:57;;;;;;;;;;;;;;;;;;5097776;28;19912;-80
2021/04/20 10:42:27;;;;;;;;;;;;;;;;;;5097695;28;20396;-80
2021/04/20 10:44:54;;;;;;;;;;;;;;;;;;5098843;28;20014;-82
2021/04/20 10:47:19;;;;;;;;;;;;;;;;;;5099004;28;19937;-79
2021/04/20 10:49:50;;;;;;;;;;;;;;;;;;5097942;28;19912;-81
2021/04/20 10:52:15;;;;;;;;;;;;;;;;;;5099762;28;19912;-81
2021/04/20 10:54:42;;;;;;;;;;;;;;;;;;5098458;28;19918;-81
2021/04/20 10:57:10;;;;;;;;;;;;;;;;;;5094724;28;19951;-84
2021/04/20 10:59:38;;;;;;;;;;;;;;;;;;5097347;28;19982;-80
2021/04/20 11:02:06;;;;;;;;;;;;;;;;;;5098464;28;19923;-83
2021/04/20 11:04:33;;;;;;;;;;;;;;;;;;5105840;28;19912;-84
2021/04/20 11:07:18;;;;;;;;;;;;;;;;;;5121135;28;19912;-85
2021/04/20 11:09:44;;;;;;;;;;;;;;;;;;5118392;28;19911;-83
2021/04/20 11:12:13;;;;;;;;;;;;;;;;;;5121168;28;19932;-84
2021/04/20 11:14:43;;;;;;;;;;;;;;;;;;5120059;28;20006;-82
2021/04/20 11:17:11;;;;;;;;;;;;;;;;;;5118865;28;19915;-80
2021/04/20 11:19:40;;;;;;;;;;;;;;;;;;5084689;28;20014;-77
2021/04/20 11:22:05;;;;;;;;;;;;;;;;;;5080996;28;20002;-78
2021/04/20 11:24:35;;;;;;;;;;;;;;;;;;5075491;28;20005;-77
2021/04/20 11:27:06;;;;;;;;;;;;;;;;;;5075291;28;20043;-78
2021/04/20 11:30:00;;;;;;;;;;;;;;;;;;5076891;28;19983;-78
2021/04/20 11:32:31;;;;;;;;;;;;;;;;;;5068395;28;19920;-78
2021/04/20 11:35:01;;;;;;;;;;;;;;;;;;5076491;28;19913;-78
2021/04/20 11:37:27;;;;;;;;;;;;;;;;;;5085631;28;19912;-78
2021/04/20 11:39:58;;;;;;;;;;;;;;;;;;5098848;28;19908;-78
2021/04/20 11:42:33;;;;;;;;;;;;;;;;;;5100524;28;19923;-78
2021/04/20 11:45:02;;;;;;;;;;;;;;;;;;5097881;28;19941;-78
2021/04/20 11:47:27;;;;;;;;;;;;;;;;;;5098746;28;19961;-78
2021/04/20 11:49:56;;;;;;;;;;;;;;;;;;5098745;28;19983;-78
2021/04/20 11:52:31;;;;;;;;;;;;;;;;;;5098035;28;20013;-78
2021/04/20 11:54:57;;;;;;;;;;;;;;;;;;5096745;28;19915;-78
2021/04/20 11:57:24;;;;;;;;;;;;;;;;;;5097944;28;19916;-78
2021/04/20 11:59:50;;;;;;;;;;;;;;;;;;5098454;28;19912;-78
2021/04/20 12:02:17;;;;;;;;;;;;;;;;;;5097266;28;19916;-78
2021/04/20 12:04:46;;;;;;;;;;;;;;;;;;5096922;28;19935;-78
2021/04/20 12:07:13;;;;;;;;;;;;;;;;;;5097509;28;19922;-78
2021/04/20 12:09:39;;;;;;;;;;;;;;;;;;5096922;28;19920;-78
2021/04/20 12:12:06;;;;;;;;;;;;;;;;;;5097053;28;19912;-78
2021/04/20 12:14:35;;;;;;;;;;;;;;;;;;5097335;28;19912;-78
2021/04/20 12:17:00;;;;;;;;;;;;;;;;;;5097335;28;19912;-78
2021/04/20 12:19:27;;;;;;;;;;;;;;;;;;5096758;28;19918;-78
2021/04/20 12:21:57;;;;;;;;;;;;;;;;;;5096231;28;19916;-78
2021/04/20 12:24:24;;;;;;;;;;;;;;;;;;5097387;28;19918;-78
2021/04/20 12:26:51;;;;;;;;;;;;;;;;;;5095760;28;19919;-78
2021/04/20 12:29:17;;;;;;;;;;;;;;;;;;5097337;28;19950;-78
2021/04/20 12:31:43;;;;;;;;;;;;;;;;;;5097469;28;19923;-78
2021/04/20 12:34:09;;;;;;;;;;;;;;;;;;5096910;28;19916;-78
2021/04/20 12:36:46;;;;;;;;;;;;;;;;;;5096233;28;19915;-78
2021/04/20 12:39:13;;;;;;;;;;;;;;;;;;5095988;28;19915;-78
2021/04/20 12:41:39;;;;;;;;;;;;;;;;;;5094516;28;20297;-78
2021/04/20 12:44:07;;;;;;;;;;;;;;;;;;5094645;28;19916;-78
2021/04/20 12:46:33;;;;;;;;;;;;;;;;;;5095920;28;19912;-78
2021/04/20 12:49:04;;;;;;;;;;;;;;;;;;5095678;28;19918;-78
2021/04/20 12:51:30;;;;;;;;;;;;;;;;;;5096105;28;19979;-78
2021/04/20 12:53:57;;;;;;;;;;;;;;;;;;5093495;28;19965;-75
2021/04/20 12:56:28;;;;;;;;;;;;;;;;;;5093462;28;19938;-76
2021/04/20 12:58:55;;;;;;;;;;;;;;;;;;5092837;28;19944;-76
2021/04/20 13:01:22;;;;;;;;;;;;;;;;;;5093289;28;19969;-76
2021/04/20 13:03:48;;;;;;;;;;;;;;;;;;5094642;28;19912;-77
2021/04/20 13:06:14;;;;;;;;;;;;;;;;;;5096896;28;20007;-76
2021/04/20 13:08:47;;;;;;;;;;;;;;;;;;5096692;28;19912;-75
2021/04/20 13:11:22;;;;;;;;;;;;;;;;;;5095996;28;19912;-75
2021/04/20 13:13:49;;;;;;;;;;;;;;;;;;5096473;28;20369;-75
2021/04/20 13:16:15;;;;;;;;;;;;;;;;;;5096567;28;19919;-75
2021/04/20 13:18:40;;;;;;;;;;;;;;;;;;5096301;28;20373;-76
2021/04/20 13:21:06;;;;;;;;;;;;;;;;;;5096653;28;19920;-75
2021/04/20 13:23:34;;;;;;;;;;;;;;;;;;5096533;28;19916;-76
2021/04/20 13:26:01;;;;;;;;;;;;;;;;;;5078395;28;19961;-75
2021/04/20 13:28:28;;;;;;;;;;;;;;;;;;5095043;28;19958;-76
2021/04/20 13:30:54;;;;;;;;;;;;;;;;;;5093116;28;20433;-79
2021/04/20 13:33:20;;;;;;;;;;;;;;;;;;5096645;28;20003;-76
2021/04/20 13:35:46;;;;;;;;;;;;;;;;;;5096575;28;20350;-76
2021/04/20 13:38:12;;;;;;;;;;;;;;;;;;5087906;28;19913;-77
2021/04/20 13:40:37;;;;;;;;;;;;;;;;;;5078531;28;20297;-80
2021/04/20 13:43:03;;;;;;;;;;;;;;;;;;5079345;28;19958;-78
2021/04/20 13:45:33;;;;;;;;;;;;;;;;;;5076065;28;19923;-77
2021/04/20 13:47:58;;;;;;;;;;;;;;;;;;5075731;28;19912;-77
2021/04/20 13:50:25;;;;;;;;;;;;;;;;;;5075689;28;19919;-76
2021/04/20 13:52:52;;;;;;;;;;;;;;;;;;5084590;28;19918;-77
2021/04/20 13:55:20;;;;;;;;;;;;;;;;;;5095790;28;19915;-75
2021/04/20 13:57:55;;;;;;;;;;;;;;;;;;5095726;28;19912;-76
2021/04/20 14:00:29;;;;;;;;;;;;;;;;;;5095606;28;19912;-76
2021/04/20 14:02:56;;;;;;;;;;;;;;;;;;5094880;28;20425;-77
2021/04/20 14:05:28;;;;;;;;;;;;;;;;;;5095684;28;20357;-78
2021/04/20 14:07:54;;;;;;;;;;;;;;;;;;5103635;28;19911;-77
2021/04/20 14:10:23;;;;;;;;;;;;;;;;;;5102933;28;19988;-79
2021/04/20 14:12:50;;;;;;;;;;;;;;;;;;5104577;28;19939;-79
2021/04/20 14:15:16;;;;;;;;;;;;;;;;;;5109784;28;19934;-78
2021/04/20 14:17:52;;;;;;;;;;;;;;;;;;5100856;28;20382;-78
2021/04/20 14:20:23;;;;;;;;;;;;;;;;;;5098587;28;19912;-79
2021/04/20 14:22:52;;;;;;;;;;;;;;;;;;5098011;28;19923;-78
2021/04/20 14:25:18;;;;;;;;;;;;;;;;;;5103261;28;19912;-81
2021/04/20 14:27:44;;;;;;;;;;;;;;;;;;5107026;28;19919;-82
2021/04/20 14:30:11;;;;;;;;;;;;;;;;;;5106691;28;19983;-81
2021/04/20 14:32:38;;;;;;;;;;;;;;;;;;5119454;28;19920;-81
2021/04/20 14:35:04;;;;;;;;;;;;;;;;;;5106918;28;19927;-80
2021/04/20 14:37:31;;;;;;;;;;;;;;;;;;5101385;28;19912;-80
2021/04/20 14:39:56;;;;;;;;;;;;;;;;;;5101528;28;19912;-77
2021/04/20 14:42:22;;;;;;;;;;;;;;;;;;5093961;28;20293;-77
2021/04/20 14:44:48;;;;;;;;;;;;;;;;;;5094897;28;19912;-77
2021/04/20 14:47:16;;;;;;;;;;;;;;;;;;5093885;28;19912;-78
2021/04/20 14:49:43;;;;;;;;;;;;;;;;;;5095698;28;20343;-78
2021/04/20 14:52:13;;;;;;;;;;;;;;;;;;5098248;28;19916;-78
2021/04/20 14:54:43;;;;;;;;;;;;;;;;;;5096314;28;19916;-81
2021/04/20 14:57:08;;;;;;;;;;;;;;;;;;5099439;28;19988;-78
2021/04/20 14:59:35;;;;;;;;;;;;;;;;;;5094757;28;19915;-78
2021/04/20 15:02:01;;;;;;;;;;;;;;;;;;5096289;28;19915;-78
2021/04/20 15:04:27;;;;;;;;;;;;;;;;;;5094134;28;20285;-77
2021/04/20 15:07:05;;;;;;;;;;;;;;;;;;5094748;28;19912;-77
2021/04/20 15:09:39;;;;;;;;;;;;;;;;;;5095144;28;19918;-78
2021/04/20 15:12:06;;;;;;;;;;;;;;;;;;5096135;28;20452;-78
2021/04/20 15:14:35;;;;;;;;;;;;;;;;;;5100918;28;20388;-78
2021/04/20 15:17:02;;;;;;;;;;;;;;;;;;5100277;28;20012;-78
2021/04/20 15:19:28;;;;;;;;;;;;;;;;;;5094970;28;19920;-78
2021/04/20 15:22:12;;;;;;;;;;;;;;;;;;5094536;28;19923;-77
2021/04/20 15:24:56;;;;;;;;;;;;;;;;;;5100012;28;19919;-79
2021/04/20 15:27:21;;;;;;;;;;;;;;;;;;5100954;28;20411;-79
2021/04/20 15:29:52;;;;;;;;;;;;;;;;;;5098752;28;19916;-79
2021/04/20 15:32:23;;;;;;;;;;;;;;;;;;5100760;28;19963;-79
2021/04/20 15:34:53;;;;;;;;;;;;;;;;;;5100280;28;19919;-79
2021/04/20 15:37:20;;;;;;;;;;;;;;;;;;5100680;28;19908;-79
2021/04/20 15:39:48;;;;;;;;;;;;;;;;;;5099863;28;20011;-79
2021/04/20 15:42:14;;;;;;;;;;;;;;;;;;5098499;28;19916;-78
2021/04/20 15:44:40;;;;;;;;;;;;;;;;;;5097596;28;20395;-78
2021/04/20 15:47:06;;;;;;;;;;;;;;;;;;5098189;28;19912;-78
2021/04/20 15:49:37;;;;;;;;;;;;;;;;;;5098986;28;20434;-78
2021/04/20 15:52:04;;;;;;;;;;;;;;;;;;5097681;28;19919;-78
2021/04/20 15:54:32;;;;;;;;;;;;;;;;;;5094807;28;19920;-78
2021/04/20 15:56:59;;;;;;;;;;;;;;;;;;5086151;28;19912;-78
2021/04/20 15:59:27;;;;;;;;;;;;;;;;;;5088434;28;19978;-79
2021/04/20 16:02:06;;;;;;;;;;;;;;;;;;5088736;28;20082;-79
2021/04/20 16:04:36;;;;;;;;;;;;;;;;;;5087953;28;20286;-78
2021/04/20 16:07:02;;;;;;;;;;;;;;;;;;5086945;28;19912;-79
2021/04/20 16:09:27;;;;;;;;;;;;;;;;;;5086690;28;19916;-78
2021/04/20 16:11:58;;;;;;;;;;;;;;;;;;5095349;28;19955;-78
2021/04/20 16:14:29;;;;;;;;;;;;;;;;;;5094317;28;19915;-77
2021/04/20 16:16:55;;;;;;;;;;;;;;;;;;5094140;28;19947;-77
2021/04/20 16:19:21;;;;;;;;;;;;;;;;;;5093893;28;19957;-77
2021/04/20 16:21:48;;;;;;;;;;;;;;;;;;5093733;28;19942;-77
2021/04/20 16:24:18;;;;;;;;;;;;;;;;;;5093167;28;19912;-77
2021/04/20 16:26:44;;;;;;;;;;;;;;;;;;5093219;28;19916;-78
2021/04/20 16:29:11;;;;;;;;;;;;;;;;;;5093401;28;19923;-77
2021/04/20 16:31:39;;;;;;;;;;;;;;;;;;5092361;28;20247;-77
2021/04/20 16:34:04;;;;;;;;;;;;;;;;;;5093552;28;19912;-77
2021/04/20 16:36:33;;;;;;;;;;;;;;;;;;5093675;28;19919;-77
2021/04/20 16:39:17;;;;;;;;;;;;;;;;;;5096788;28;19919;-77
2021/04/20 16:41:45;;;;;;;;;;;;;;;;;;5098089;28;19916;-77
2021/04/20 16:44:11;;;;;;;;;;;;;;;;;;5098198;28;19919;-76
2021/04/20 16:46:39;;;;;;;;;;;;;;;;;;5097098;28;19912;-75
2021/04/20 16:49:08;;;;;;;;;;;;;;;;;;5096883;28;19916;-75
2021/04/20 16:51:48;;;;;;;;;;;;;;;;;;5095956;28;19916;-75
2021/04/20 16:54:17;;;;;;;;;;;;;;;;;;5096561;28;19919;-75
2021/04/20 16:57:04;;;;;;;;;;;;;;;;;;5096980;28;19911;-75